Time;durP1;ratioP1;P1;durP2;ratioP2;P2;SDS_P1;SDS_P2;PMS_P1;PMS_P2;Temp;Humidity;BMP_temperature;BMP_pressure;BME280_temperature;BME280_humidity;BME280_pressure;Samples;Min_cycle;Max_cycle;Signal;HPM_P1;HPM_P2
2023/04/05 00:01:31;;;;;;;10.10;5.68;;;0.30;99.90;;;;;;5002374;28;20166;-91
2023/04/05 00:03:58;;;;;;;11.25;6.10;;;0.30;99.90;;;;;;5024643;28;20033;-90
2023/04/05 00:06:28;;;;;;;9.48;5.82;;;0.30;99.90;;;;;;5000536;28;20053;-90
2023/04/05 00:08:58;;;;;;;15.13;6.22;;;0.30;99.90;;;;;;5002655;28;20107;-91
2023/04/05 00:11:29;;;;;;;12.70;6.32;;;0.40;99.90;;;;;;5014971;28;20042;-90
2023/04/05 00:13:55;;;;;;;10.57;5.88;;;0.30;99.90;;;;;;5027290;28;20044;-91
2023/04/05 00:16:21;;;;;;;9.35;6.00;;;0.30;99.90;;;;;;5030513;28;20034;-90
2023/04/05 00:18:50;;;;;;;10.23;6.00;;;0.30;99.90;;;;;;4998123;28;20038;-90
2023/04/05 00:21:20;;;;;;;10.70;5.85;;;0.20;99.90;;;;;;5003466;28;20045;-91
2023/04/05 00:23:47;;;;;;;9.77;5.88;;;0.20;99.90;;;;;;5023628;28;20107;-91
2023/04/05 00:26:20;;;;;;;10.80;5.90;;;0.10;99.90;;;;;;4997695;28;20042;-91
2023/04/05 00:28:46;;;;;;;12.77;5.78;;;0.10;99.90;;;;;;5017452;28;20041;-91
2023/04/05 00:31:12;;;;;;;11.68;5.85;;;0.10;99.90;;;;;;5013739;28;20037;-90
2023/04/05 00:33:38;;;;;;;11.00;5.88;;;0.00;99.90;;;;;;5017053;28;20362;-92
2023/04/05 00:36:11;;;;;;;10.20;5.65;;;-0.10;99.90;;;;;;5000978;28;20053;-91
2023/04/05 00:38:37;;;;;;;11.45;5.90;;;-0.10;99.90;;;;;;5024806;28;20056;-90
2023/04/05 00:41:02;;;;;;;10.35;6.55;;;-0.20;99.90;;;;;;5001947;28;20073;-91
2023/04/05 00:43:28;;;;;;;12.35;7.07;;;-0.20;99.90;;;;;;5003914;28;20041;-91
2023/04/05 00:45:56;;;;;;;11.07;6.78;;;-0.20;99.90;;;;;;5002704;28;20073;-91
2023/04/05 00:48:26;;;;;;;14.15;8.15;;;-0.30;99.90;;;;;;5002305;28;20045;-91
2023/04/05 00:50:52;;;;;;;12.02;7.72;;;-0.30;99.90;;;;;;5017539;28;20128;-91
2023/04/05 00:53:19;;;;;;;11.95;7.55;;;-0.20;99.90;;;;;;5003480;28;20132;-91
2023/04/05 00:55:50;;;;;;;14.80;7.72;;;-0.30;99.90;;;;;;5016809;28;20044;-90
2023/04/05 00:58:23;;;;;;;11.45;7.57;;;-0.30;99.90;;;;;;4998772;28;20425;-90
2023/04/05 01:00:58;;;;;;;12.15;8.15;;;-0.40;99.90;;;;;;5002915;28;20127;-89
2023/04/05 01:03:27;;;;;;;14.10;7.60;;;-0.30;99.90;;;;;;5024503;28;20029;-89
2023/04/05 01:06:26;;;;;;;13.27;8.15;;;-0.40;99.90;;;;;;4998598;28;20122;-90
2023/04/05 01:09:23;;;;;;;13.57;7.80;;;-0.40;99.90;;;;;;4999951;28;20175;-90
2023/04/05 01:11:54;;;;;;;14.90;8.80;;;-0.40;99.90;;;;;;5018543;28;20057;-90
2023/04/05 01:14:20;;;;;;;14.48;8.25;;;-0.40;99.90;;;;;;5000717;28;20080;-91
2023/04/05 01:16:48;;;;;;;12.27;8.20;;;-0.40;99.90;;;;;;5001023;28;20068;-91
2023/04/05 01:19:15;;;;;;;14.60;8.90;;;-0.50;99.90;;;;;;5000351;28;20095;-91
2023/04/05 01:22:19;;;;;;;9.88;6.75;;;-0.50;99.90;;;;;;5002138;28;20103;-90
2023/04/05 01:25:18;;;;;;;12.43;8.13;;;-0.60;99.90;;;;;;5001357;28;20100;-90
2023/04/05 01:27:58;;;;;;;14.18;8.35;;;-0.60;99.90;;;;;;4998901;28;20041;-90
2023/04/05 01:30:31;;;;;;;12.35;8.32;;;-0.60;99.90;;;;;;5002014;28;20290;-91
2023/04/05 01:33:05;;;;;;;13.90;7.85;;;-0.60;99.90;;;;;;4999928;28;20045;-90
2023/04/05 01:35:50;;;;;;;14.50;8.70;;;-0.70;99.90;;;;;;5015805;28;20037;-90
2023/04/05 01:38:21;;;;;;;14.50;8.27;;;-0.70;99.90;;;;;;5024400;28;20145;-90
2023/04/05 01:40:47;;;;;;;12.88;8.25;;;-0.70;99.90;;;;;;5000111;28;20510;-89
2023/04/05 01:43:14;;;;;;;12.10;8.43;;;-0.70;99.90;;;;;;5001375;28;20189;-91
2023/04/05 01:45:45;;;;;;;12.23;8.32;;;-0.80;99.90;;;;;;5002911;28;20281;-90
2023/04/05 01:48:11;;;;;;;14.20;8.65;;;-0.80;99.90;;;;;;5005418;28;20124;-91
2023/04/05 01:50:36;;;;;;;13.80;8.63;;;-0.80;99.90;;;;;;5027688;28;20149;-90
2023/04/05 01:53:05;;;;;;;13.23;7.63;;;-0.80;99.90;;;;;;5003088;28;20097;-91
2023/04/05 01:55:31;;;;;;;11.15;8.13;;;-0.80;99.90;;;;;;5018874;28;20188;-90
2023/04/05 01:57:57;;;;;;;12.63;7.72;;;-0.80;99.90;;;;;;5003685;28;20117;-90
2023/04/05 02:00:22;;;;;;;11.70;7.68;;;-0.80;99.90;;;;;;5003213;28;20503;-90
2023/04/05 02:02:48;;;;;;;12.05;7.78;;;-0.80;99.90;;;;;;5017440;28;20042;-90
2023/04/05 02:05:14;;;;;;;13.65;7.72;;;-0.90;99.90;;;;;;5002971;28;20052;-90
2023/04/05 02:07:40;;;;;;;10.38;6.80;;;-0.90;99.90;;;;;;5017089;28;20030;-90
2023/04/05 02:10:07;;;;;;;10.93;7.18;;;-0.90;99.90;;;;;;5006091;28;20634;-91
2023/04/05 02:12:32;;;;;;;13.10;7.97;;;-0.90;99.90;;;;;;5003528;28;20045;-90
2023/04/05 02:14:58;;;;;;;12.68;7.47;;;-0.90;99.90;;;;;;5033149;28;20064;-91
2023/04/05 02:17:24;;;;;;;15.35;8.35;;;-1.00;99.90;;;;;;5021918;28;20348;-90
2023/04/05 02:19:51;;;;;;;13.95;8.23;;;-1.00;99.90;;;;;;5030757;28;20180;-89
2023/04/05 02:22:18;;;;;;;12.07;8.13;;;-1.00;99.90;;;;;;5021474;28;20111;-91
2023/04/05 02:24:44;;;;;;;11.82;8.52;;;-1.00;99.90;;;;;;5017275;28;20300;-90
2023/04/05 02:27:10;;;;;;;14.27;8.85;;;-1.00;99.90;;;;;;5047598;28;20295;-90
2023/04/05 02:29:35;;;;;;;12.90;8.60;;;-1.00;99.90;;;;;;5004728;28;20212;-91
2023/04/05 02:32:01;;;;;;;13.43;7.82;;;-1.10;99.90;;;;;;5003705;28;20047;-91
2023/04/05 02:34:27;;;;;;;14.20;8.98;;;-1.10;99.90;;;;;;5005007;28;20034;-90
2023/04/05 02:36:53;;;;;;;12.15;7.95;;;-1.10;99.90;;;;;;5000152;28;20053;-90
2023/04/05 02:39:19;;;;;;;15.02;8.35;;;-1.20;99.90;;;;;;5000366;28;20049;-90
2023/04/05 02:41:48;;;;;;;12.48;7.80;;;-1.10;99.90;;;;;;5002749;28;20042;-90
2023/04/05 02:44:13;;;;;;;13.52;7.80;;;-1.20;99.90;;;;;;5034039;28;20034;-90
2023/04/05 02:46:39;;;;;;;16.27;7.90;;;-1.20;99.90;;;;;;5005763;28;20053;-90
2023/04/05 02:49:05;;;;;;;15.93;7.57;;;-1.20;99.90;;;;;;5029797;28;20475;-90
2023/04/05 02:51:33;;;;;;;15.13;7.47;;;-1.20;99.90;;;;;;5008236;28;20033;-89
2023/04/05 02:54:02;;;;;;;12.52;7.70;;;-1.20;99.90;;;;;;5018021;28;20510;-91
2023/04/05 02:56:29;;;;;;;19.30;8.38;;;-1.30;99.90;;;;;;5004586;28;20044;-89
2023/04/05 02:58:54;;;;;;;17.58;8.82;;;-1.30;99.90;;;;;;5004825;28;20982;-91
2023/04/05 03:01:21;;;;;;;13.10;8.15;;;-1.20;99.90;;;;;;5000933;28;20185;-90
2023/04/05 03:03:47;;;;;;;14.80;8.52;;;-1.20;99.90;;;;;;5002029;28;20084;-91
2023/04/05 03:06:13;;;;;;;16.27;8.93;;;-1.20;99.90;;;;;;5045921;28;20038;-90
2023/04/05 03:08:45;;;;;;;14.45;8.30;;;-1.20;99.90;;;;;;5015925;28;20037;-90
2023/04/05 03:11:11;;;;;;;13.90;8.63;;;-1.20;99.90;;;;;;5003071;28;20097;-90
2023/04/05 03:13:37;;;;;;;15.57;8.65;;;-1.20;99.90;;;;;;5004241;28;20057;-90
2023/04/05 03:16:04;;;;;;;16.95;8.48;;;-1.20;99.90;;;;;;5028710;28;20041;-91
2023/04/05 03:18:30;;;;;;;16.17;8.60;;;-1.30;99.90;;;;;;5004902;28;20050;-91
2023/04/05 03:20:56;;;;;;;12.75;8.07;;;-1.30;99.90;;;;;;5002589;28;20032;-90
2023/04/05 03:23:28;;;;;;;17.08;8.57;;;-1.30;99.90;;;;;;5001462;28;20030;-90
2023/04/05 03:25:55;;;;;;;13.43;7.70;;;-1.30;99.90;;;;;;5019763;28;20117;-89
2023/04/05 03:28:22;;;;;;;17.00;8.35;;;-1.30;99.90;;;;;;5005260;28;20597;-90
2023/04/05 03:30:51;;;;;;;15.63;8.45;;;-1.30;99.90;;;;;;5003536;28;20045;-90
2023/04/05 03:33:18;;;;;;;16.75;8.57;;;-1.30;99.90;;;;;;5004907;28;20045;-92
2023/04/05 03:35:44;;;;;;;14.35;8.00;;;-1.30;99.90;;;;;;5004667;28;20041;-90
2023/04/05 03:38:09;;;;;;;13.50;8.60;;;-1.30;99.90;;;;;;5000463;28;20056;-91
2023/04/05 03:40:35;;;;;;;15.75;9.15;;;-1.30;99.90;;;;;;5002719;28;20040;-91
2023/04/05 03:43:01;;;;;;;16.58;9.20;;;-1.20;99.90;;;;;;5020055;28;20045;-89
2023/04/05 03:45:28;;;;;;;18.42;9.55;;;-1.30;99.90;;;;;;5002127;28;20468;-90
2023/04/05 03:47:57;;;;;;;15.68;9.00;;;-1.30;99.90;;;;;;5002485;28;20487;-90
2023/04/05 03:50:23;;;;;;;15.38;9.23;;;-1.30;99.90;;;;;;4997424;28;20068;-90
2023/04/05 03:52:49;;;;;;;14.02;8.65;;;-1.30;99.90;;;;;;5025493;28;20344;-90
2023/04/05 03:55:15;;;;;;;19.05;9.98;;;-1.30;99.90;;;;;;4997975;28;20547;-90
2023/04/05 03:57:41;;;;;;;17.77;9.93;;;-1.30;99.90;;;;;;5015290;28;20041;-90
2023/04/05 04:00:13;;;;;;;15.52;9.52;;;-1.30;99.90;;;;;;5001879;28;20064;-91
2023/04/05 04:02:47;;;;;;;15.68;10.13;;;-1.30;99.90;;;;;;5004225;28;20099;-92
2023/04/05 04:05:14;;;;;;;19.30;10.20;;;-1.40;99.90;;;;;;5026788;28;20051;-91
2023/04/05 04:07:42;;;;;;;18.13;10.55;;;-1.30;99.90;;;;;;5001226;28;20129;-90
2023/04/05 04:10:09;;;;;;;18.55;10.85;;;-1.30;99.90;;;;;;5001698;28;20057;-90
2023/04/05 04:12:35;;;;;;;18.38;10.95;;;-1.40;99.90;;;;;;5013929;28;20097;-92
2023/04/05 04:15:01;;;;;;;19.08;10.75;;;-1.30;99.90;;;;;;5031251;28;20140;-92
2023/04/05 04:17:31;;;;;;;19.13;10.80;;;-1.30;99.90;;;;;;5002900;28;20657;-90
2023/04/05 04:19:57;;;;;;;18.40;11.05;;;-1.30;99.90;;;;;;5019682;28;20064;-91
2023/04/05 04:22:25;;;;;;;19.27;11.20;;;-1.30;99.90;;;;;;4998970;28;20495;-90
2023/04/05 04:24:54;;;;;;;18.35;11.00;;;-1.20;99.90;;;;;;4999115;28;20069;-91
2023/04/05 04:27:23;;;;;;;24.95;12.48;;;-1.20;99.90;;;;;;5001263;28;20087;-92
2023/04/05 04:29:48;;;;;;;22.40;12.75;;;-1.10;99.90;;;;;;5002873;28;22237;-91
2023/04/05 04:32:15;;;;;;;25.40;13.63;;;-1.20;99.90;;;;;;5017968;28;20053;-91
2023/04/05 04:34:43;;;;;;;26.20;12.90;;;-1.20;99.90;;;;;;4997643;28;20890;-90
2023/04/05 04:37:16;;;;;;;21.33;13.32;;;-1.20;99.90;;;;;;5017948;28;20061;-90
2023/04/05 04:39:45;;;;;;;24.30;13.55;;;-1.20;99.90;;;;;;4998553;28;20101;-90
2023/04/05 04:42:11;;;;;;;24.83;14.48;;;-1.20;99.90;;;;;;4998147;28;20029;-92
2023/04/05 04:44:36;;;;;;;30.45;14.55;;;-1.20;99.90;;;;;;5002579;28;20052;-91
2023/04/05 04:47:02;;;;;;;24.30;13.10;;;-1.20;99.90;;;;;;5000069;28;20533;-91
2023/04/05 04:49:29;;;;;;;23.20;13.73;;;-1.20;99.90;;;;;;4999961;28;20048;-91
2023/04/05 04:51:58;;;;;;;26.98;15.52;;;-1.20;99.90;;;;;;4997978;28;20128;-91
2023/04/05 04:54:24;;;;;;;26.17;15.38;;;-1.20;99.90;;;;;;5024591;28;20037;-90
2023/04/05 04:56:49;;;;;;;25.35;15.43;;;-1.20;99.90;;;;;;5001371;28;20049;-89
2023/04/05 04:59:15;;;;;;;24.02;14.73;;;-1.20;99.90;;;;;;5003075;28;20491;-90
2023/04/05 05:01:44;;;;;;;23.08;13.25;;;-1.20;99.90;;;;;;5002600;28;20037;-91
2023/04/05 05:04:10;;;;;;;26.05;14.18;;;-1.20;99.90;;;;;;5002259;28;20097;-91
2023/04/05 05:06:36;;;;;;;30.08;15.00;;;-1.20;99.90;;;;;;5000234;28;20945;-91
2023/04/05 05:09:02;;;;;;;24.40;16.13;;;-1.20;99.90;;;;;;5018182;28;20041;-91
2023/04/05 05:11:27;;;;;;;30.23;15.70;;;-1.10;99.90;;;;;;5001073;28;20362;-91
2023/04/05 05:13:53;;;;;;;25.48;15.02;;;-1.10;99.90;;;;;;5018265;28;20938;-90
2023/04/05 05:16:22;;;;;;;25.00;14.90;;;-1.10;99.90;;;;;;4998886;28;20049;-90
2023/04/05 05:18:50;;;;;;;27.15;15.35;;;-1.20;99.90;;;;;;4999837;28;20034;-90
2023/04/05 05:21:16;;;;;;;26.55;15.65;;;-1.10;99.90;;;;;;5022671;28;20109;-91
2023/04/05 05:23:41;;;;;;;29.00;15.63;;;-1.20;99.90;;;;;;5001807;28;20484;-91
2023/04/05 05:26:07;;;;;;;21.58;14.48;;;-1.10;99.90;;;;;;5003509;28;20037;-89
2023/04/05 05:28:33;;;;;;;25.45;14.27;;;-1.10;99.90;;;;;;5007709;28;20609;-90
2023/04/05 05:30:58;;;;;;;24.45;14.93;;;-1.10;99.90;;;;;;5005802;28;20077;-90
2023/04/05 05:33:24;;;;;;;28.27;15.65;;;-1.10;99.90;;;;;;5004794;28;20053;-91
2023/04/05 05:35:51;;;;;;;24.02;13.52;;;-1.00;99.90;;;;;;5002404;28;20486;-90
2023/04/05 05:38:17;;;;;;;22.85;13.65;;;-1.00;99.90;;;;;;4999452;28;20108;-91
2023/04/05 05:40:44;;;;;;;23.48;13.27;;;-1.10;99.90;;;;;;5004394;28;20141;-91
2023/04/05 05:43:10;;;;;;;24.77;14.30;;;-1.00;99.90;;;;;;5035202;28;20048;-90
2023/04/05 05:45:36;;;;;;;28.10;15.95;;;-0.90;99.90;;;;;;5004823;28;20453;-90
2023/04/05 05:48:01;;;;;;;23.85;14.73;;;-0.80;99.90;;;;;;5004612;28;20068;-90
2023/04/05 05:50:31;;;;;;;26.98;16.48;;;-0.80;99.90;;;;;;5008359;28;20048;-91
2023/04/05 05:53:00;;;;;;;26.75;16.52;;;-0.70;99.90;;;;;;5025686;28;20474;-90
2023/04/05 05:55:26;;;;;;;25.98;16.10;;;-0.60;99.90;;;;;;5007329;28;20052;-92
2023/04/05 05:57:55;;;;;;;29.63;16.55;;;-0.60;99.90;;;;;;5022765;28;20034;-91
2023/04/05 06:00:21;;;;;;;25.13;15.07;;;-0.50;99.90;;;;;;5009284;28;20573;-91
2023/04/05 06:02:48;;;;;;;28.17;15.27;;;-0.40;99.90;;;;;;5008583;28;20120;-90
2023/04/05 06:05:14;;;;;;;31.10;17.17;;;-0.30;99.90;;;;;;5007329;28;20033;-90
2023/04/05 06:07:39;;;;;;;25.42;15.88;;;-0.20;99.90;;;;;;5020811;28;21064;-90
2023/04/05 06:10:07;;;;;;;29.92;16.63;;;-0.10;99.90;;;;;;5006576;28;20414;-90
2023/04/05 06:12:33;;;;;;;25.80;16.38;;;0.10;99.90;;;;;;5005994;28;20060;-90
2023/04/05 06:15:00;;;;;;;28.20;17.10;;;0.20;99.90;;;;;;5008929;28;20037;-91
2023/04/05 06:17:25;;;;;;;29.17;18.10;;;0.30;99.90;;;;;;5009590;28;20037;-91
2023/04/05 06:19:51;;;;;;;26.70;17.08;;;0.50;99.90;;;;;;5006348;28;20411;-91
2023/04/05 06:22:21;;;;;;;29.85;17.90;;;0.60;99.90;;;;;;5007398;28;20175;-91
2023/04/05 06:24:47;;;;;;;30.77;18.10;;;0.70;99.90;;;;;;5021067;28;20037;-90
2023/04/05 06:27:13;;;;;;;25.17;18.10;;;0.80;99.90;;;;;;5008532;28;20371;-91
2023/04/05 06:29:39;;;;;;;28.75;17.27;;;0.90;99.90;;;;;;5004020;28;20514;-92
2023/04/05 06:32:05;;;;;;;27.17;17.20;;;1.00;99.90;;;;;;5006893;28;20049;-90
2023/04/05 06:34:30;;;;;;;27.38;18.55;;;1.10;99.90;;;;;;5005561;28;20234;-90
2023/04/05 06:36:57;;;;;;;26.40;17.35;;;1.20;99.90;;;;;;5020836;28;20057;-90
2023/04/05 06:39:23;;;;;;;26.52;17.35;;;1.30;99.90;;;;;;5020529;28;20395;-90
2023/04/05 06:41:48;;;;;;;23.83;16.75;;;1.40;99.90;;;;;;5006548;28;20033;-91
2023/04/05 06:44:14;;;;;;;24.83;16.30;;;1.40;99.90;;;;;;5008562;28;20026;-92
2023/04/05 06:46:40;;;;;;;21.90;15.75;;;1.50;99.90;;;;;;5005120;28;20457;-91
2023/04/05 06:49:05;;;;;;;21.42;15.15;;;1.60;99.90;;;;;;5019403;28;20056;-92
2023/04/05 06:51:31;;;;;;;24.77;15.07;;;1.60;99.90;;;;;;5007668;28;20052;-92
2023/04/05 06:53:57;;;;;;;22.00;15.13;;;1.70;99.90;;;;;;5023178;28;20049;-91
2023/04/05 06:56:23;;;;;;;21.73;14.65;;;1.70;99.90;;;;;;5005959;28;20132;-92
2023/04/05 06:58:49;;;;;;;21.98;14.70;;;1.80;99.90;;;;;;5006139;28;20189;-91
2023/04/05 07:01:16;;;;;;;22.85;14.60;;;1.90;99.90;;;;;;5007425;28;20052;-93
2023/04/05 07:03:42;;;;;;;21.67;15.02;;;2.00;99.90;;;;;;5006608;28;20053;-92
2023/04/05 07:06:09;;;;;;;22.02;15.00;;;2.10;99.90;;;;;;5008231;28;20041;-91
2023/04/05 07:08:34;;;;;;;24.17;15.27;;;2.20;99.90;;;;;;5023165;28;20041;-91
2023/04/05 07:11:00;;;;;;;19.25;14.20;;;2.30;99.90;;;;;;5006511;28;20037;-91
2023/04/05 07:13:26;;;;;;;19.08;13.98;;;2.30;99.90;;;;;;5005610;28;20049;-90
2023/04/05 07:16:00;;;;;;;18.90;13.45;;;2.40;99.90;;;;;;5006553;28;20068;-90
2023/04/05 07:18:26;;;;;;;21.38;15.07;;;2.50;99.90;;;;;;5006184;28;20116;-90
2023/04/05 07:20:55;;;;;;;23.17;13.85;;;2.60;99.90;;;;;;5051709;28;20512;-90
2023/04/05 07:23:23;;;;;;;17.98;13.05;;;2.70;99.90;;;;;;5006805;28;20235;-91
2023/04/05 07:25:49;;;;;;;17.35;12.82;;;2.80;99.90;;;;;;5020121;28;20037;-90
2023/04/05 07:28:14;;;;;;;18.50;12.63;;;2.90;99.90;;;;;;5005607;28;20508;-90
2023/04/05 07:30:40;;;;;;;17.13;13.18;;;3.00;99.90;;;;;;5007156;28;20041;-90
2023/04/05 07:33:06;;;;;;;20.13;13.52;;;3.10;99.90;;;;;;5005123;28;20079;-89
2023/04/05 07:35:32;;;;;;;19.67;13.45;;;3.20;99.90;;;;;;5022369;28;20115;-89
2023/04/05 07:37:57;;;;;;;19.15;13.25;;;3.30;99.90;;;;;;5007053;28;20132;-90
2023/04/05 07:40:26;;;;;;;19.55;13.98;;;3.50;99.90;;;;;;5005086;28;20125;-90
2023/04/05 07:42:52;;;;;;;19.85;13.30;;;3.60;99.90;;;;;;5004616;28;20387;-89
2023/04/05 07:45:18;;;;;;;19.95;12.40;;;3.70;99.90;;;;;;5006209;28;20040;-90
2023/04/05 07:47:45;;;;;;;16.75;12.18;;;3.80;99.90;;;;;;5006577;28;20034;-90
2023/04/05 07:50:13;;;;;;;18.40;12.07;;;3.90;99.90;;;;;;5021409;28;20099;-89
2023/04/05 07:52:42;;;;;;;15.38;11.82;;;4.00;99.90;;;;;;5005646;28;20063;-90
2023/04/05 07:55:09;;;;;;;15.57;11.90;;;4.10;99.90;;;;;;5004539;28;20403;-90
2023/04/05 07:57:35;;;;;;;16.45;12.02;;;4.20;99.90;;;;;;5004344;28;20038;-89
2023/04/05 08:00:01;;;;;;;13.40;10.85;;;4.40;99.90;;;;;;5003076;28;20034;-88
2023/04/05 08:02:27;;;;;;;14.95;11.02;;;4.40;99.90;;;;;;5008073;28;20037;-89
2023/04/05 08:04:52;;;;;;;15.45;10.75;;;4.60;62.80;;;;;;5005283;28;20034;-88
2023/04/05 08:07:18;;;;;;;15.85;11.30;;;4.70;1.00;;;;;;5005390;28;20541;-89
2023/04/05 08:09:46;;;;;;;13.40;11.38;;;4.90;99.90;;;;;;5005652;28;20042;-90
2023/04/05 08:12:12;;;;;;;13.70;11.27;;;5.00;1.00;;;;;;5001375;28;20196;-88
2023/04/05 08:14:38;;;;;;;12.32;9.27;;;5.10;99.90;;;;;;5019935;28;20041;-90
2023/04/05 08:17:03;;;;;;;13.25;10.10;;;5.20;99.90;;;;;;5034040;28;20033;-90
2023/04/05 08:19:29;;;;;;;15.43;9.75;;;5.30;99.90;;;;;;5005721;28;20037;-89
2023/04/05 08:21:55;;;;;;;15.32;9.88;;;5.40;99.90;;;;;;5020296;28;20033;-91
2023/04/05 08:24:21;;;;;;;14.07;9.55;;;5.50;77.10;;;;;;5033335;28;20116;-89
2023/04/05 08:26:47;;;;;;;12.27;7.50;;;5.60;99.90;;;;;;5018828;28;20128;-90
2023/04/05 08:29:13;;;;;;;10.05;7.47;;;5.60;99.90;;;;;;5006099;28;20124;-89
2023/04/05 08:31:39;;;;;;;13.13;8.15;;;5.80;99.90;;;;;;5004881;28;20462;-90
2023/04/05 08:34:07;;;;;;;10.75;7.75;;;6.00;61.10;;;;;;5021331;28;20040;-90
2023/04/05 08:36:32;;;;;;;15.68;8.20;;;6.10;99.90;;;;;;5005290;28;20484;-90
2023/04/05 08:38:58;;;;;;;11.38;8.23;;;6.30;99.90;;;;;;5020799;28;20102;-90
2023/04/05 08:41:29;;;;;;;9.85;7.90;;;6.20;1.00;;;;;;5004178;28;20073;-90
2023/04/05 08:44:04;;;;;;;11.27;7.65;;;6.20;99.90;;;;;;5020183;28;20103;-91
2023/04/05 08:46:32;;;;;;;12.68;7.57;;;6.50;99.90;;;;;;5019569;28;20045;-90
2023/04/05 08:48:58;;;;;;;11.57;7.30;;;6.50;1.00;;;;;;5021880;28;20053;-91
2023/04/05 08:51:25;;;;;;;9.50;7.55;;;6.70;1.00;;;;;;5004874;28;20359;-91
2023/04/05 08:53:52;;;;;;;12.20;7.28;;;6.90;62.80;;;;;;5004812;28;20076;-90
2023/04/05 08:56:27;;;;;;;8.98;7.05;;;6.90;99.90;;;;;;5023410;28;20591;-90
2023/04/05 08:58:57;;;;;;;8.45;7.25;;;7.00;99.90;;;;;;5012808;28;20664;-90
2023/04/05 09:01:25;;;;;;;11.05;6.93;;;7.20;99.90;;;;;;5012639;28;20210;-90
2023/04/05 09:03:55;;;;;;;8.80;7.00;;;7.40;99.90;;;;;;5012748;28;20037;-91
2023/04/05 09:06:21;;;;;;;10.75;7.40;;;7.40;79.50;;;;;;5012654;28;20083;-90
2023/04/05 09:08:47;;;;;;;9.13;7.45;;;7.50;99.90;;;;;;5011236;28;20244;-91
2023/04/05 09:11:15;;;;;;;11.52;7.82;;;7.70;99.90;;;;;;5024286;28;20192;-91
2023/04/05 09:13:41;;;;;;;11.02;8.20;;;7.70;76.10;;;;;;5012695;28;20096;-91
2023/04/05 09:16:07;;;;;;;11.50;8.23;;;7.60;1.00;;;;;;5010529;28;20041;-91
2023/04/05 09:18:35;;;;;;;9.15;6.93;;;7.90;69.00;;;;;;5011575;28;20030;-90
2023/04/05 09:21:04;;;;;;;9.63;6.53;;;8.10;1.00;;;;;;5027996;28;20052;-91
2023/04/05 09:23:30;;;;;;;10.52;7.18;;;8.10;99.90;;;;;;5040827;28;20146;-91
2023/04/05 09:25:56;;;;;;;9.25;6.30;;;8.20;99.90;;;;;;5010641;28;20041;-91
2023/04/05 09:28:22;;;;;;;8.85;5.53;;;8.10;99.90;;;;;;5042227;28;20041;-90
2023/04/05 09:30:50;;;;;;;9.70;6.13;;;8.30;99.90;;;;;;5041058;28;20045;-91
2023/04/05 09:33:19;;;;;;;9.25;5.80;;;8.50;99.90;;;;;;5012421;28;20415;-91
2023/04/05 09:35:50;;;;;;;7.28;5.47;;;8.30;99.90;;;;;;5011290;28;20498;-91
2023/04/05 09:38:19;;;;;;;7.75;5.20;;;8.60;99.90;;;;;;5059684;28;20223;-91
2023/04/05 09:40:46;;;;;;;11.40;6.28;;;8.60;99.90;;;;;;5011893;28;20105;-91
2023/04/05 09:43:33;;;;;;;9.52;6.15;;;8.80;99.90;;;;;;5011903;28;20118;-91
2023/04/05 09:45:59;;;;;;;8.57;5.28;;;8.80;99.90;;;;;;5027604;28;20045;-91
2023/04/05 09:48:47;;;;;;;6.75;4.88;;;9.00;99.90;;;;;;5009959;28;20061;-91
2023/04/05 09:51:20;;;;;;;8.07;5.00;;;9.10;99.90;;;;;;5045783;28;20048;-91
2023/04/05 09:54:01;;;;;;;6.72;5.05;;;8.90;99.60;;;;;;5013473;28;20052;-91
2023/04/05 09:56:36;;;;;;;7.32;4.90;;;9.00;32.90;;;;;;5011223;28;20433;-90
2023/04/05 09:59:09;;;;;;;6.20;4.32;;;9.30;96.90;;;;;;5010589;28;20037;-91
2023/04/05 10:01:36;;;;;;;6.53;4.38;;;9.70;99.90;;;;;;5012719;28;20037;-91
2023/04/05 10:04:02;;;;;;;6.53;4.35;;;9.70;47.60;;;;;;5013739;28;20056;-91
2023/04/05 10:06:41;;;;;;;7.72;4.38;;;9.60;1.00;;;;;;5011323;28;20045;-91
2023/04/05 10:09:10;;;;;;;7.38;4.93;;;9.80;1.00;;;;;;5010089;28;20131;-91
2023/04/05 10:11:43;;;;;;;9.13;5.03;;;10.10;21.50;;;;;;5008358;28;20565;-91
2023/04/05 10:14:09;;;;;;;6.53;5.13;;;10.20;1.00;;;;;;5005613;28;20041;-91
2023/04/05 10:16:50;;;;;;;6.57;4.75;;;10.40;18.30;;;;;;5008107;28;20060;-91
2023/04/05 10:19:33;;;;;;;9.55;5.25;;;10.50;1.00;;;;;;5009000;28;20132;-91
2023/04/05 10:22:06;;;;;;;8.20;5.20;;;10.40;1.00;;;;;;5004569;28;20235;-91
2023/04/05 10:25:07;;;;;;;7.97;4.65;;;10.30;1.00;;;;;;5006869;28;20056;-91
2023/04/05 10:28:00;;;;;;;6.75;5.30;;;9.50;1.00;;;;;;5007724;28;20041;-91
2023/04/05 10:30:34;;;;;;;6.50;5.05;;;9.90;1.00;;;;;;5008016;28;20041;-91
2023/04/05 10:33:20;;;;;;;8.77;5.80;;;9.60;99.90;;;;;;5008738;28;20480;-92
2023/04/05 10:36:18;;;;;;;6.38;5.22;;;9.60;99.90;;;;;;5007258;28;20045;-90
2023/04/05 10:38:56;;;;;;;7.80;4.93;;;10.10;99.90;;;;;;5022171;28;20069;-90
2023/04/05 10:41:25;;;;;;;8.50;5.75;;;10.40;99.90;;;;;;5021789;28;20506;-92
2023/04/05 10:43:55;;;;;;;9.30;5.55;;;10.00;99.90;;;;;;5024773;28;20037;-90
2023/04/05 10:46:22;;;;;;;9.00;5.70;;;10.50;1.00;;;;;;5007900;28;20145;-91
2023/04/05 10:49:06;;;;;;;8.43;5.38;;;10.70;1.00;;;;;;5021811;28;20076;-90
2023/04/05 10:51:33;;;;;;;8.90;6.00;;;10.80;99.90;;;;;;5035052;28;20046;-91
2023/04/05 10:54:03;;;;;;;6.47;5.03;;;9.70;99.90;;;;;;5023762;28;20536;-91
2023/04/05 10:56:30;;;;;;;8.52;5.40;;;9.40;99.90;;;;;;5006464;28;20100;-91
2023/04/05 10:58:58;;;;;;;7.05;5.45;;;9.80;99.90;;;;;;5023346;28;20045;-91
2023/04/05 11:01:24;;;;;;;9.48;5.22;;;9.70;99.90;;;;;;5008171;28;20037;-91
2023/04/05 11:03:51;;;;;;;8.30;5.45;;;10.20;99.90;;;;;;5010351;28;20036;-91
2023/04/05 11:06:18;;;;;;;7.13;5.10;;;10.50;99.90;;;;;;5024079;28;20551;-91
2023/04/05 11:08:45;;;;;;;7.65;5.43;;;11.00;99.90;;;;;;5006398;28;20037;-91
2023/04/05 11:11:17;;;;;;;7.70;5.18;;;10.80;99.90;;;;;;5023819;28;20074;-91
2023/04/05 11:14:10;;;;;;;8.80;5.40;;;10.60;99.90;;;;;;5008264;28;20040;-91
2023/04/05 11:16:39;;;;;;;8.68;5.35;;;10.10;99.90;;;;;;4999492;28;20065;-91
2023/04/05 11:19:08;;;;;;;8.60;5.53;;;9.80;99.90;;;;;;5006201;28;20041;-91
2023/04/05 11:21:34;;;;;;;8.02;5.18;;;10.00;99.90;;;;;;5008566;28;20111;-91
2023/04/05 11:24:05;;;;;;;8.98;5.10;;;10.50;99.90;;;;;;5008618;28;20038;-91
2023/04/05 11:26:46;;;;;;;6.20;5.35;;;11.00;99.90;;;;;;5021344;28;20041;-92
2023/04/05 11:29:15;;;;;;;5.95;4.93;;;11.20;99.90;;;;;;5006768;28;20045;-91
2023/04/05 11:32:05;;;;;;;9.52;5.22;;;11.40;99.90;;;;;;5021589;28;20555;-91
2023/04/05 11:34:35;;;;;;;7.50;5.10;;;11.40;99.90;;;;;;5007406;28;20524;-91
2023/04/05 11:37:01;;;;;;;7.82;5.05;;;11.80;99.90;;;;;;5022343;28;20116;-91
2023/04/05 11:39:27;;;;;;;5.93;4.75;;;11.90;99.90;;;;;;5007473;28;20478;-91
2023/04/05 11:41:57;;;;;;;5.75;5.00;;;12.10;99.90;;;;;;5001860;28;20037;-92
2023/04/05 11:44:25;;;;;;;6.78;5.00;;;12.00;99.90;;;;;;5006412;28;20132;-91
2023/04/05 11:46:53;;;;;;;7.80;5.50;;;11.90;99.90;;;;;;5008450;28;20037;-91
2023/04/05 11:49:23;;;;;;;8.77;5.70;;;11.60;99.90;;;;;;5007018;28;20128;-91
2023/04/05 11:51:51;;;;;;;6.78;5.50;;;11.70;99.90;;;;;;5007583;28;20037;-91
2023/04/05 11:54:33;;;;;;;8.27;5.35;;;12.20;99.90;;;;;;5033338;28;20103;-90
2023/04/05 11:57:00;;;;;;;6.10;5.13;;;12.50;99.90;;;;;;5006120;28;20041;-91
2023/04/05 11:59:30;;;;;;;6.15;4.82;;;12.40;99.90;;;;;;5008106;28;20898;-91
2023/04/05 12:02:07;;;;;;;6.25;5.15;;;12.00;99.90;;;;;;5006992;28;20464;-91
2023/04/05 12:04:36;;;;;;;6.22;4.80;;;12.40;99.90;;;;;;5006904;28;20091;-90
2023/04/05 12:07:19;;;;;;;7.05;5.05;;;12.70;99.90;;;;;;5007823;28;20494;-91
2023/04/05 12:10:20;;;;;;;6.93;5.13;;;12.30;99.90;;;;;;5036972;28;20045;-91
2023/04/05 12:12:47;;;;;;;7.95;5.30;;;11.10;99.90;;;;;;4999263;28;20060;-91
2023/04/05 12:15:16;;;;;;;7.13;4.68;;;11.00;99.90;;;;;;5004202;28;20128;-91
2023/04/05 12:17:50;;;;;;;7.05;5.30;;;10.70;99.90;;;;;;5007102;28;20039;-91
2023/04/05 12:20:23;;;;;;;7.43;5.55;;;11.10;99.90;;;;;;5006720;28;20219;-91
2023/04/05 12:22:52;;;;;;;6.78;5.28;;;11.20;99.90;;;;;;5021412;28;20041;-91
2023/04/05 12:25:19;;;;;;;7.40;4.90;;;11.70;99.90;;;;;;5006021;28;20041;-90
2023/04/05 12:27:46;;;;;;;6.80;5.10;;;11.70;99.90;;;;;;5004221;28;20073;-91
2023/04/05 12:30:20;;;;;;;5.78;4.78;;;11.50;99.90;;;;;;5006507;28;20049;-90
2023/04/05 12:32:50;;;;;;;5.90;4.95;;;12.20;99.90;;;;;;5006106;28;20049;-91
2023/04/05 12:35:23;;;;;;;7.07;4.60;;;11.50;99.90;;;;;;5003643;28;20041;-91
2023/04/05 12:37:50;;;;;;;6.53;5.35;;;11.90;99.90;;;;;;5006176;28;20119;-91
2023/04/05 12:40:23;;;;;;;7.40;4.72;;;12.50;99.90;;;;;;5006238;28;20045;-91
2023/04/05 12:42:50;;;;;;;6.60;5.28;;;12.90;99.90;;;;;;5038420;28;20052;-91
2023/04/05 12:45:17;;;;;;;7.53;4.70;;;13.10;99.90;;;;;;5006849;28;20056;-90
2023/04/05 12:47:50;;;;;;;5.63;4.50;;;13.60;99.90;;;;;;5006081;28;20204;-92
2023/04/05 12:50:18;;;;;;;6.57;5.03;;;13.40;99.90;;;;;;5020088;28;20033;-91